Time;durP1;ratioP1;P1;durP2;ratioP2;P2;SDS_P1;SDS_P2;PMS_P1;PMS_P2;Temp;Humidity;BMP_temperature;BMP_pressure;BME280_temperature;BME280_humidity;BME280_pressure;Samples;Min_cycle;Max_cycle;Signal;HPM_P1;HPM_P2
2022/10/22 00:02:09;;;;;;;0.60;0.60;;;;;;;;;;4969296;28;20446;-70
2022/10/22 00:04:35;;;;;;;1.83;1.73;;;;;;;;;;4969359;28;20486;-70
2022/10/22 00:07:01;;;;;;;5.30;0.87;;;;;;;;;;4969595;28;20977;-71
2022/10/22 00:09:27;;;;;;;0.90;0.70;;;;;;;;;;4970404;28;20425;-71
2022/10/22 00:11:53;;;;;;;1.40;0.90;;;;;;;;;;4970808;28;20930;-71
2022/10/22 00:14:19;;;;;;;5.17;1.03;;;;;;;;;;4969179;28;20433;-70
2022/10/22 00:16:45;;;;;;;0.80;0.60;;;;;;;;;;4969964;28;20432;-70
2022/10/22 00:19:12;;;;;;;0.80;0.80;;;;;;;;;;4969647;28;20437;-71
2022/10/22 00:21:38;;;;;;;0.50;0.50;;;;;;;;;;4974706;28;20513;-68
2022/10/22 00:24:04;;;;;;;3.23;0.60;;;;;;;;;;4973530;28;20933;-69
2022/10/22 00:26:30;;;;;;;0.40;0.40;;;;;;;;;;4974551;28;20429;-68
2022/10/22 00:28:56;;;;;;;3.60;0.77;;;;;;;;;;4973848;28;20516;-69
2022/10/22 00:31:22;;;;;;;0.73;0.73;;;;;;;;;;4974240;28;20438;-68
2022/10/22 00:33:48;;;;;;;3.00;0.40;;;;;;;;;;4974244;28;20926;-68
2022/10/22 00:36:14;;;;;;;0.60;0.60;;;;;;;;;;4974682;28;20430;-71
2022/10/22 00:38:40;;;;;;;0.93;0.93;;;;;;;;;;4973002;28;20812;-71
2022/10/22 00:41:07;;;;;;;0.60;0.60;;;;;;;;;;4973937;28;20441;-71
2022/10/22 00:43:33;;;;;;;0.60;0.60;;;;;;;;;;4973641;28;20491;-70
2022/10/22 00:45:59;;;;;;;3.50;0.67;;;;;;;;;;4974107;28;20520;-69
2022/10/22 00:48:26;;;;;;;0.40;0.40;;;;;;;;;;4973380;28;20481;-70
2022/10/22 00:50:58;;;;;;;1.30;0.60;;;;;;;;;;4973863;28;20525;-70
2022/10/22 00:53:38;;;;;;;6.40;0.80;;;;;;;;;;4974431;28;20422;-68
2022/10/22 00:56:05;;;;;;;1.57;0.70;;;;;;;;;;4974228;28;20430;-69
2022/10/22 00:58:34;;;;;;;2.20;0.70;;;;;;;;;;4973775;28;20558;-70
2022/10/22 01:01:00;;;;;;;0.60;0.60;;;;;;;;;;4973547;28;20464;-69
2022/10/22 01:03:26;;;;;;;0.73;0.70;;;;;;;;;;4973716;28;20994;-69
2022/10/22 01:05:57;;;;;;;1.33;1.33;;;;;;;;;;4973568;28;20449;-67
2022/10/22 01:08:29;;;;;;;0.93;0.93;;;;;;;;;;4973083;28;20449;-72
2022/10/22 01:11:04;;;;;;;0.70;0.70;;;;;;;;;;4972265;28;20520;-68
2022/10/22 01:13:30;;;;;;;0.70;0.70;;;;;;;;;;4974051;28;20437;-68
2022/10/22 01:16:06;;;;;;;1.37;0.73;;;;;;;;;;4973645;28;20440;-69
2022/10/22 01:18:37;;;;;;;6.13;0.77;;;;;;;;;;4973593;28;20186;-72
2022/10/22 01:21:14;;;;;;;0.40;0.40;;;;;;;;;;4973323;28;20472;-70
2022/10/22 01:23:54;;;;;;;1.47;0.93;;;;;;;;;;4973410;28;20516;-69
2022/10/22 01:26:23;;;;;;;0.50;0.50;;;;;;;;;;4972654;28;20457;-68
2022/10/22 01:28:53;;;;;;;0.70;0.70;;;;;;;;;;4972302;28;20434;-68
2022/10/22 01:31:21;;;;;;;0.50;0.50;;;;;;;;;;4970092;28;20429;-68
2022/10/22 01:33:48;;;;;;;0.70;0.60;;;;;;;;;;4972780;28;20935;-71
2022/10/22 01:36:15;;;;;;;2.97;1.20;;;;;;;;;;4973043;28;20426;-68
2022/10/22 01:38:41;;;;;;;2.93;0.60;;;;;;;;;;4972906;28;20939;-69
2022/10/22 01:41:07;;;;;;;2.50;0.70;;;;;;;;;;4971702;28;20493;-70
2022/10/22 01:43:33;;;;;;;5.40;1.07;;;;;;;;;;4973311;28;20568;-71
2022/10/22 01:46:01;;;;;;;2.10;0.77;;;;;;;;;;4973193;28;20514;-70
2022/10/22 01:48:54;;;;;;;1.07;0.60;;;;;;;;;;4972577;28;20438;-68
2022/10/22 01:51:38;;;;;;;2.10;0.77;;;;;;;;;;4972703;28;20813;-68
2022/10/22 01:54:24;;;;;;;1.03;0.80;;;;;;;;;;4973612;28;20412;-69
2022/10/22 01:56:50;;;;;;;0.87;0.60;;;;;;;;;;4971657;28;20438;-70
2022/10/22 01:59:21;;;;;;;0.60;0.60;;;;;;;;;;4971672;28;20946;-72
2022/10/22 02:02:00;;;;;;;1.13;0.60;;;;;;;;;;4972931;28;20205;-69
2022/10/22 02:04:29;;;;;;;2.53;0.93;;;;;;;;;;4971705;28;20522;-69
2022/10/22 02:06:58;;;;;;;0.67;0.67;;;;;;;;;;4971722;28;20529;-72
2022/10/22 02:09:25;;;;;;;0.60;0.60;;;;;;;;;;4972181;28;20509;-69
2022/10/22 02:11:51;;;;;;;0.80;0.80;;;;;;;;;;4973077;28;20442;-68
2022/10/22 02:14:18;;;;;;;0.67;0.67;;;;;;;;;;4973149;28;20426;-71
2022/10/22 02:16:45;;;;;;;0.53;0.53;;;;;;;;;;4972121;28;20493;-68
2022/10/22 02:19:17;;;;;;;0.60;0.60;;;;;;;;;;4970092;28;20525;-70
2022/10/22 02:21:43;;;;;;;0.93;0.93;;;;;;;;;;4987645;28;20449;-72
2022/10/22 02:24:09;;;;;;;0.77;0.77;;;;;;;;;;4972723;28;20516;-70
2022/10/22 02:26:39;;;;;;;0.70;0.70;;;;;;;;;;4971678;28;20426;-68
2022/10/22 02:29:09;;;;;;;0.87;0.87;;;;;;;;;;4972205;28;20426;-68
2022/10/22 02:31:37;;;;;;;2.47;0.90;;;;;;;;;;4971683;28;20429;-71
2022/10/22 02:34:07;;;;;;;1.00;0.90;;;;;;;;;;4972683;28;20540;-68
2022/10/22 02:36:34;;;;;;;1.53;0.70;;;;;;;;;;4971833;28;20434;-71
2022/10/22 02:39:00;;;;;;;2.00;0.70;;;;;;;;;;4971746;28;20441;-69
2022/10/22 02:41:27;;;;;;;1.10;1.10;;;;;;;;;;4972337;28;20765;-68
2022/10/22 02:43:54;;;;;;;1.23;1.23;;;;;;;;;;4971143;28;20521;-69
2022/10/22 02:46:20;;;;;;;9.57;1.20;;;;;;;;;;4970784;28;20433;-68
2022/10/22 02:48:46;;;;;;;1.13;1.10;;;;;;;;;;4971317;28;20433;-68
2022/10/22 02:51:12;;;;;;;1.10;1.10;;;;;;;;;;4972362;28;20433;-69
2022/10/22 02:53:38;;;;;;;1.40;1.40;;;;;;;;;;4971325;28;20529;-69
2022/10/22 02:56:04;;;;;;;1.40;1.40;;;;;;;;;;4969776;28;20517;-68
2022/10/22 02:58:30;;;;;;;1.63;1.50;;;;;;;;;;4971647;28;20438;-69
2022/10/22 03:00:56;;;;;;;2.57;1.27;;;;;;;;;;4971024;28;20771;-69
2022/10/22 03:03:22;;;;;;;2.40;1.43;;;;;;;;;;4972106;28;20481;-68
2022/10/22 03:05:49;;;;;;;3.13;1.77;;;;;;;;;;4970651;28;20433;-68
2022/10/22 03:08:15;;;;;;;2.10;2.00;;;;;;;;;;4971274;28;20499;-70
2022/10/22 03:10:41;;;;;;;6.53;2.20;;;;;;;;;;4970631;28;20485;-70
2022/10/22 03:13:07;;;;;;;3.23;1.70;;;;;;;;;;4971966;28;20790;-71
2022/10/22 03:15:33;;;;;;;2.23;2.13;;;;;;;;;;4971138;28;20437;-71
2022/10/22 03:17:59;;;;;;;3.53;2.60;;;;;;;;;;4970933;28;20457;-71
2022/10/22 03:20:25;;;;;;;2.83;2.60;;;;;;;;;;4969743;28;20476;-69
2022/10/22 03:22:52;;;;;;;3.27;2.57;;;;;;;;;;4971099;28;20482;-70
2022/10/22 03:25:20;;;;;;;2.20;2.20;;;;;;;;;;4970040;28;20442;-69
2022/10/22 03:27:47;;;;;;;2.17;2.17;;;;;;;;;;4971477;28;20899;-69
2022/10/22 03:30:13;;;;;;;2.13;2.10;;;;;;;;;;4970038;28;20449;-68
2022/10/22 03:32:39;;;;;;;3.57;3.13;;;;;;;;;;4971310;28;20416;-69
2022/10/22 03:35:05;;;;;;;4.23;2.90;;;;;;;;;;4971213;28;20442;-70
2022/10/22 03:37:32;;;;;;;2.90;2.73;;;;;;;;;;4971415;28;20473;-70
2022/10/22 03:39:58;;;;;;;2.40;2.40;;;;;;;;;;4970588;28;21112;-68
2022/10/22 03:42:24;;;;;;;2.97;2.80;;;;;;;;;;4970636;28;20426;-68
2022/10/22 03:44:50;;;;;;;4.03;3.30;;;;;;;;;;4970815;28;20516;-68
2022/10/22 03:47:16;;;;;;;1.97;1.97;;;;;;;;;;4970927;28;20429;-68
2022/10/22 03:49:42;;;;;;;2.37;2.23;;;;;;;;;;4970551;28;20485;-69
2022/10/22 03:52:09;;;;;;;2.77;2.50;;;;;;;;;;4969089;28;20441;-68
2022/10/22 03:54:35;;;;;;;3.07;2.87;;;;;;;;;;4969724;28;20953;-71
2022/10/22 03:57:02;;;;;;;2.90;2.70;;;;;;;;;;4971162;28;21163;-71
2022/10/22 03:59:28;;;;;;;3.80;2.83;;;;;;;;;;4970154;28;20426;-69
2022/10/22 04:01:54;;;;;;;5.20;3.30;;;;;;;;;;4970903;28;20429;-68
2022/10/22 04:04:20;;;;;;;2.90;2.80;;;;;;;;;;4970069;28;21140;-69
2022/10/22 04:06:45;;;;;;;1.87;1.80;;;;;;;;;;4970674;28;20433;-71
2022/10/22 04:09:11;;;;;;;3.10;3.00;;;;;;;;;;4969063;28;20532;-68
2022/10/22 04:11:37;;;;;;;2.20;2.20;;;;;;;;;;4970808;28;20474;-68
2022/10/22 04:14:03;;;;;;;3.20;3.13;;;;;;;;;;4970823;28;20915;-70
2022/10/22 04:16:31;;;;;;;6.10;2.30;;;;;;;;;;4969175;28;20456;-70
2022/10/22 04:18:57;;;;;;;2.27;2.27;;;;;;;;;;4969112;28;20528;-71
2022/10/22 04:21:24;;;;;;;3.30;2.40;;;;;;;;;;4969810;28;20440;-69
2022/10/22 04:23:50;;;;;;;3.07;2.97;;;;;;;;;;4970491;28;20469;-69
2022/10/22 04:26:17;;;;;;;3.03;2.83;;;;;;;;;;4970845;28;20485;-69
2022/10/22 04:28:43;;;;;;;2.83;2.63;;;;;;;;;;4970212;28;20973;-70
2022/10/22 04:31:10;;;;;;;3.40;3.20;;;;;;;;;;4970108;28;20946;-70
2022/10/22 04:33:36;;;;;;;3.50;3.30;;;;;;;;;;4970914;28;20429;-68
2022/10/22 04:36:12;;;;;;;3.10;2.90;;;;;;;;;;4970667;28;20429;-68
2022/10/22 04:38:40;;;;;;;5.77;3.03;;;;;;;;;;4970523;28;20464;-70
2022/10/22 04:41:10;;;;;;;3.53;3.33;;;;;;;;;;4970122;28;20923;-68
2022/10/22 04:43:36;;;;;;;3.17;2.80;;;;;;;;;;4969728;28;20481;-69
2022/10/22 04:46:02;;;;;;;2.90;2.80;;;;;;;;;;4970414;28;20485;-68
2022/10/22 04:48:28;;;;;;;3.33;3.10;;;;;;;;;;4970554;28;20426;-69
2022/10/22 04:50:56;;;;;;;6.73;3.17;;;;;;;;;;4969417;28;20521;-68
2022/10/22 04:53:22;;;;;;;3.27;3.00;;;;;;;;;;4969333;28;20946;-69
2022/10/22 04:55:48;;;;;;;3.07;2.90;;;;;;;;;;4970220;28;20434;-68
2022/10/22 04:58:15;;;;;;;2.93;2.83;;;;;;;;;;4970750;28;20907;-69
2022/10/22 05:00:42;;;;;;;3.50;3.20;;;;;;;;;;4969349;28;20445;-69
2022/10/22 05:03:08;;;;;;;12.03;3.40;;;;;;;;;;4970516;28;20821;-70
2022/10/22 05:05:34;;;;;;;3.57;3.47;;;;;;;;;;4970900;28;20977;-68
2022/10/22 05:08:00;;;;;;;3.03;2.83;;;;;;;;;;4973702;28;20492;-69
2022/10/22 05:10:25;;;;;;;3.60;3.40;;;;;;;;;;4973457;28;20476;-69
2022/10/22 05:12:51;;;;;;;5.60;4.00;;;;;;;;;;4972575;28;20480;-69
2022/10/22 05:15:17;;;;;;;3.70;3.43;;;;;;;;;;4973718;28;20464;-70
2022/10/22 05:17:43;;;;;;;3.10;3.00;;;;;;;;;;4972485;28;20782;-70
2022/10/22 05:20:09;;;;;;;4.00;3.80;;;;;;;;;;4972037;28;20536;-72
2022/10/22 05:22:35;;;;;;;3.57;3.37;;;;;;;;;;4973547;28;20410;-69
2022/10/22 05:25:01;;;;;;;3.70;3.60;;;;;;;;;;4973827;28;21802;-69
2022/10/22 05:27:27;;;;;;;4.13;3.93;;;;;;;;;;4973812;28;20803;-71
2022/10/22 05:29:53;;;;;;;3.70;3.60;;;;;;;;;;4973273;28;20430;-69
2022/10/22 05:32:19;;;;;;;4.90;4.60;;;;;;;;;;4972709;28;20430;-69
2022/10/22 05:34:45;;;;;;;6.13;5.77;;;;;;;;;;4973594;28;20437;-68
2022/10/22 05:37:11;;;;;;;7.60;5.23;;;;;;;;;;4973808;28;20899;-72
2022/10/22 05:39:39;;;;;;;3.87;3.67;;;;;;;;;;4972482;28;20784;-71
2022/10/22 05:42:05;;;;;;;8.93;5.07;;;;;;;;;;4973141;28;20422;-71
2022/10/22 05:44:31;;;;;;;5.07;4.87;;;;;;;;;;4972236;28;20485;-70
2022/10/22 05:46:57;;;;;;;5.17;4.67;;;;;;;;;;4973039;28;20477;-72
2022/10/22 05:49:23;;;;;;;4.30;4.10;;;;;;;;;;4969037;28;20441;-72
2022/10/22 05:51:49;;;;;;;4.67;4.40;;;;;;;;;;4972598;28;20440;-71
2022/10/22 05:54:17;;;;;;;4.87;4.67;;;;;;;;;;4973561;28;20500;-72
2022/10/22 05:56:42;;;;;;;5.10;4.80;;;;;;;;;;4971431;28;20449;-70
2022/10/22 05:59:10;;;;;;;4.87;4.40;;;;;;;;;;4972276;28;20438;-70
2022/10/22 06:01:36;;;;;;;5.07;4.87;;;;;;;;;;4971681;28;20444;-71
2022/10/22 06:04:03;;;;;;;6.10;5.60;;;;;;;;;;4968397;28;20981;-70
2022/10/22 06:06:32;;;;;;;4.87;4.47;;;;;;;;;;4971319;28;20437;-71
2022/10/22 06:09:04;;;;;;;4.43;4.23;;;;;;;;;;4970539;28;20517;-70
2022/10/22 06:11:30;;;;;;;4.40;4.30;;;;;;;;;;4970699;28;20476;-68
2022/10/22 06:13:56;;;;;;;4.43;4.23;;;;;;;;;;4970984;28;20973;-72
2022/10/22 06:16:22;;;;;;;4.60;4.00;;;;;;;;;;4971210;28;20442;-71
2022/10/22 06:18:48;;;;;;;6.37;4.70;;;;;;;;;;4971392;28;20461;-71
2022/10/22 06:21:15;;;;;;;9.70;6.37;;;;;;;;;;4971183;28;20434;-71
2022/10/22 06:23:43;;;;;;;6.07;5.57;;;;;;;;;;4971167;28;21195;-71
2022/10/22 06:26:10;;;;;;;4.87;4.67;;;;;;;;;;4971362;28;20852;-71
2022/10/22 06:28:36;;;;;;;5.37;4.97;;;;;;;;;;4968845;28;20468;-69
2022/10/22 06:31:03;;;;;;;5.20;4.90;;;;;;;;;;4968714;28;20441;-70
2022/10/22 06:33:30;;;;;;;4.33;4.20;;;;;;;;;;5008019;23;20546;-68
2022/10/22 06:36:03;;;;;;;6.00;5.60;;;;;;;;;;4952549;28;20435;-70
2022/10/22 06:38:31;;;;;;;6.90;5.83;;;;;;;;;;4967102;28;20521;-69
2022/10/22 06:41:01;;;;;;;5.00;4.63;;;;;;;;;;4951455;28;20447;-69
2022/10/22 06:43:28;;;;;;;5.63;5.33;;;;;;;;;;4952516;28;20478;-69
2022/10/22 06:45:58;;;;;;;6.50;6.10;;;;;;;;;;4949249;28;20534;-71
2022/10/22 06:48:24;;;;;;;6.70;6.30;;;;;;;;;;4950818;28;20451;-72
2022/10/22 06:50:50;;;;;;;5.87;5.40;;;;;;;;;;4948271;28;20435;-71
2022/10/22 06:53:16;;;;;;;16.87;7.00;;;;;;;;;;4949680;28;20521;-70
2022/10/22 06:55:42;;;;;;;8.07;5.70;;;;;;;;;;4950749;28;20775;-69
2022/10/22 06:58:07;;;;;;;16.10;7.33;;;;;;;;;;4952768;28;20427;-72
2022/10/22 07:00:33;;;;;;;9.03;6.53;;;;;;;;;;4950228;28;20453;-69
2022/10/22 07:02:59;;;;;;;18.23;7.25;;;;;;;;;;4951358;28;20500;-71
2022/10/22 07:05:25;;;;;;;8.80;8.00;;;;;;;;;;4951573;28;20790;-69
2022/10/22 07:07:51;;;;;;;8.20;7.47;;;;;;;;;;4966682;28;20448;-71
2022/10/22 07:10:17;;;;;;;12.47;7.57;;;;;;;;;;4951452;28;20494;-71
2022/10/22 07:12:43;;;;;;;7.30;6.70;;;;;;;;;;4951550;28;21006;-71
2022/10/22 07:15:10;;;;;;;7.03;6.43;;;;;;;;;;4951919;28;20443;-71
2022/10/22 07:17:36;;;;;;;6.13;5.70;;;;;;;;;;4950972;28;20442;-70
2022/10/22 07:20:02;;;;;;;6.17;5.87;;;;;;;;;;4951169;28;20947;-69
2022/10/22 07:22:28;;;;;;;6.83;6.33;;;;;;;;;;4951000;28;20443;-71
2022/10/22 07:24:54;;;;;;;10.23;6.27;;;;;;;;;;4949217;28;20565;-71
2022/10/22 07:27:20;;;;;;;7.33;6.83;;;;;;;;;;4966918;28;20471;-71
2022/10/22 07:29:46;;;;;;;7.50;6.90;;;;;;;;;;4949720;28;20446;-69
2022/10/22 07:32:11;;;;;;;8.20;7.00;;;;;;;;;;4965798;28;20458;-70
2022/10/22 07:34:37;;;;;;;7.20;6.70;;;;;;;;;;4947726;28;21014;-71
2022/10/22 07:37:04;;;;;;;8.00;7.20;;;;;;;;;;4950522;28;20527;-70
2022/10/22 07:39:29;;;;;;;8.47;7.67;;;;;;;;;;4950953;28;20458;-70
2022/10/22 07:41:55;;;;;;;9.27;7.87;;;;;;;;;;4965800;28;20471;-68
2022/10/22 07:44:21;;;;;;;11.40;8.77;;;;;;;;;;4950921;28;20578;-71
2022/10/22 07:46:47;;;;;;;9.10;8.20;;;;;;;;;;4965456;28;20437;-72
2022/10/22 07:49:13;;;;;;;8.60;7.80;;;;;;;;;;4949563;28;20809;-70
2022/10/22 07:51:39;;;;;;;8.30;7.70;;;;;;;;;;4951025;28;20492;-71
2022/10/22 07:54:05;;;;;;;7.57;6.93;;;;;;;;;;4951261;28;21002;-69
2022/10/22 07:56:31;;;;;;;11.30;7.90;;;;;;;;;;4966181;28;20845;-72
2022/10/22 07:58:57;;;;;;;16.33;8.30;;;;;;;;;;4949097;28;20496;-71
2022/10/22 08:01:23;;;;;;;10.05;9.25;;;;;;;;;;4948983;28;20436;-71
2022/10/22 08:03:49;;;;;;;9.80;8.80;;;;;;;;;;4951665;28;20619;-71
2022/10/22 08:06:16;;;;;;;7.00;6.50;;;;;;;;;;4949587;28;20438;-71
2022/10/22 08:08:44;;;;;;;9.33;8.53;;;;;;;;;;4948952;28;20942;-69
2022/10/22 08:11:10;;;;;;;7.90;7.33;;;;;;;;;;4950074;28;20434;-67
2022/10/22 08:13:37;;;;;;;9.60;8.80;;;;;;;;;;4950817;28;20958;-68
2022/10/22 08:16:03;;;;;;;8.17;7.57;;;;;;;;;;4949858;28;20507;-72
2022/10/22 08:18:29;;;;;;;13.97;8.90;;;;;;;;;;4951325;28;20435;-71
2022/10/22 08:20:55;;;;;;;9.00;8.10;;;;;;;;;;4951429;28;20473;-71
2022/10/22 08:23:21;;;;;;;11.00;9.90;;;;;;;;;;4949154;28;20525;-70
2022/10/22 08:25:47;;;;;;;8.43;7.73;;;;;;;;;;4950081;28;20439;-70
2022/10/22 08:28:13;;;;;;;8.80;8.10;;;;;;;;;;4966127;28;20449;-69
2022/10/22 08:30:40;;;;;;;12.13;8.10;;;;;;;;;;4950090;28;20442;-71
2022/10/22 08:33:06;;;;;;;8.87;8.17;;;;;;;;;;4950926;28;20474;-71
2022/10/22 08:35:32;;;;;;;6.23;5.73;;;;;;;;;;4949416;28;20485;-71
2022/10/22 08:37:58;;;;;;;6.70;6.10;;;;;;;;;;4963959;28;20438;-71
2022/10/22 08:40:31;;;;;;;8.20;6.87;;;;;;;;;;4951610;28;20971;-72
2022/10/22 08:42:57;;;;;;;7.07;6.57;;;;;;;;;;4953465;28;20481;-71
2022/10/22 08:45:35;;;;;;;6.80;6.17;;;;;;;;;;4953044;28;20475;-71
2022/10/22 08:48:10;;;;;;;9.47;7.63;;;;;;;;;;4954898;28;20446;-70
2022/10/22 08:50:40;;;;;;;6.87;6.43;;;;;;;;;;4953888;28;20442;-70
2022/10/22 08:53:11;;;;;;;3.23;3.13;;;;;;;;;;4954621;28;20928;-72
2022/10/22 08:55:38;;;;;;;6.30;5.80;;;;;;;;;;4955062;28;20458;-69
2022/10/22 08:58:22;;;;;;;6.53;6.00;;;;;;;;;;4955292;28;21006;-69
2022/10/22 09:00:58;;;;;;;6.23;5.57;;;;;;;;;;4951874;28;20489;-69
2022/10/22 09:03:42;;;;;;;6.17;5.70;;;;;;;;;;4969953;28;20489;-71
2022/10/22 09:06:14;;;;;;;4.77;4.30;;;;;;;;;;4954832;28;20916;-70
2022/10/22 09:08:41;;;;;;;5.10;4.90;;;;;;;;;;4953148;28;20495;-70
2022/10/22 09:11:07;;;;;;;5.80;5.30;;;;;;;;;;4954635;28;20415;-69
2022/10/22 09:13:33;;;;;;;4.30;4.10;;;;;;;;;;4954317;28;20497;-68
2022/10/22 09:16:01;;;;;;;5.23;4.90;;;;;;;;;;4953305;28;20517;-68
2022/10/22 09:18:41;;;;;;;5.00;4.80;;;;;;;;;;4953435;28;20908;-68
2022/10/22 09:21:18;;;;;;;13.67;6.50;;;;;;;;;;4951558;28;20554;-71
2022/10/22 09:23:47;;;;;;;4.43;4.23;;;;;;;;;;4954354;28;20502;-72
2022/10/22 09:26:14;;;;;;;5.10;4.90;;;;;;;;;;4954542;28;20419;-69
2022/10/22 09:28:40;;;;;;;5.23;4.83;;;;;;;;;;4953678;28;20502;-71
2022/10/22 09:31:13;;;;;;;4.33;4.03;;;;;;;;;;4952765;28;20443;-71
2022/10/22 09:33:40;;;;;;;4.07;3.77;;;;;;;;;;4953171;28;20553;-71
2022/10/22 09:36:06;;;;;;;3.47;3.37;;;;;;;;;;4953981;28;20950;-72
2022/10/22 09:38:47;;;;;;;5.93;4.10;;;;;;;;;;4952582;28;20438;-71
2022/10/22 09:41:13;;;;;;;3.37;3.10;;;;;;;;;;4953839;28;20442;-71
2022/10/22 09:43:39;;;;;;;2.90;2.70;;;;;;;;;;4953272;28;20489;-71
2022/10/22 09:46:07;;;;;;;2.67;2.57;;;;;;;;;;4952906;28;20434;-71
2022/10/22 09:48:41;;;;;;;3.23;3.03;;;;;;;;;;4952791;28;20537;-72
2022/10/22 09:51:15;;;;;;;3.73;2.10;;;;;;;;;;4952903;28;20449;-71
2022/10/22 09:53:42;;;;;;;1.43;1.30;;;;;;;;;;4952058;28;20431;-71
2022/10/22 09:56:28;;;;;;;3.93;1.27;;;;;;;;;;4952779;28;20843;-70
2022/10/22 09:58:58;;;;;;;1.27;0.70;;;;;;;;;;4951503;28;20947;-71
2022/10/22 10:01:23;;;;;;;0.80;0.80;;;;;;;;;;4952049;28;20439;-71
2022/10/22 10:03:50;;;;;;;3.37;0.60;;;;;;;;;;4952400;28;20470;-71
2022/10/22 10:06:20;;;;;;;0.50;0.50;;;;;;;;;;4967804;28;20446;-69
2022/10/22 10:08:46;;;;;;;1.27;1.17;;;;;;;;;;4952929;28;20418;-70
2022/10/22 10:11:30;;;;;;;0.57;0.57;;;;;;;;;;4967707;28;20431;-70
2022/10/22 10:14:15;;;;;;;1.60;1.13;;;;;;;;;;4951429;28;20431;-71
2022/10/22 10:16:58;;;;;;;1.40;1.40;;;;;;;;;;4952850;28;20457;-71
2022/10/22 10:19:27;;;;;;;0.63;0.63;;;;;;;;;;4953149;28;20442;-71
2022/10/22 10:22:06;;;;;;;4.70;4.43;;;;;;;;;;4953054;28;20431;-71
2022/10/22 10:24:52;;;;;;;3.60;1.80;;;;;;;;;;4952143;28;20464;-70
2022/10/22 10:27:28;;;;;;;2.87;1.00;;;;;;;;;;4951710;28;20194;-70
2022/10/22 10:29:54;;;;;;;5.50;2.37;;;;;;;;;;4951592;28;20440;-71
2022/10/22 10:32:27;;;;;;;1.27;1.13;;;;;;;;;;4967286;28;20430;-71
2022/10/22 10:34:59;;;;;;;1.53;0.90;;;;;;;;;;4953169;28;20435;-70
2022/10/22 10:37:37;;;;;;;1.03;1.03;;;;;;;;;;4950759;28;20427;-69
2022/10/22 10:40:23;;;;;;;1.50;1.40;;;;;;;;;;4953928;28;20438;-70
2022/10/22 10:43:06;;;;;;;3.23;1.43;;;;;;;;;;4957066;28;20486;-70
2022/10/22 10:45:51;;;;;;;2.27;0.80;;;;;;;;;;4950708;28;20521;-68
2022/10/22 10:48:55;;;;;;;6.83;0.93;;;;;;;;;;4951508;28;20450;-68
2022/10/22 10:51:29;;;;;;;1.73;1.03;;;;;;;;;;4895915;29;20480;-71
2022/10/22 10:54:15;;;;;;;0.90;0.90;;;;;;;;;;4912381;29;20436;-70
2022/10/22 10:56:44;;;;;;;1.87;0.80;;;;;;;;;;4946875;28;20435;-69
2022/10/22 10:59:26;;;;;;;2.70;1.10;;;;;;;;;;4950819;28;20445;-69
2022/10/22 11:02:02;;;;;;;1.70;1.37;;;;;;;;;;4950130;28;20848;-70
2022/10/22 11:04:46;;;;;;;4.60;1.47;;;;;;;;;;4951476;28;20499;-68
2022/10/22 11:07:14;;;;;;;1.50;1.00;;;;;;;;;;4950090;28;20443;-69
2022/10/22 11:09:46;;;;;;;3.37;0.80;;;;;;;;;;4951195;28;21079;-70
2022/10/22 11:12:15;;;;;;;10.93;1.07;;;;;;;;;;4967068;28;20435;-70
2022/10/22 11:14:50;;;;;;;8.80;0.80;;;;;;;;;;4951097;28;20435;-70
2022/10/22 11:17:17;;;;;;;0.90;0.90;;;;;;;;;;4952009;28;20451;-69
2022/10/22 11:19:47;;;;;;;1.00;0.90;;;;;;;;;;4951495;28;20473;-71
2022/10/22 11:22:13;;;;;;;3.03;0.97;;;;;;;;;;4952518;28;20423;-68
2022/10/22 11:24:47;;;;;;;1.83;1.10;;;;;;;;;;4951661;28;20573;-69
2022/10/22 11:27:16;;;;;;;0.60;0.60;;;;;;;;;;4949386;28;20805;-69
2022/10/22 11:29:46;;;;;;;1.23;0.70;;;;;;;;;;4951102;28;20927;-69
2022/10/22 11:32:18;;;;;;;9.57;2.63;;;;;;;;;;4949211;28;20427;-71
2022/10/22 11:34:49;;;;;;;0.70;0.70;;;;;;;;;;4951709;28;20537;-71
2022/10/22 11:37:16;;;;;;;2.73;2.17;;;;;;;;;;4952042;28;20962;-71
2022/10/22 11:40:08;;;;;;;1.50;1.43;;;;;;;;;;4951100;28;20523;-70
2022/10/22 11:42:36;;;;;;;1.17;1.07;;;;;;;;;;4927764;28;20430;-71
2022/10/22 11:45:02;;;;;;;24.90;4.00;;;;;;;;;;4951141;28;20853;-69
2022/10/22 11:47:32;;;;;;;1.53;1.40;;;;;;;;;;4951889;28;20438;-69
2022/10/22 11:50:01;;;;;;;13.53;1.57;;;;;;;;;;4966365;28;20903;-69
2022/10/22 11:52:30;;;;;;;1.60;1.10;;;;;;;;;;4951369;28;20647;-71
2022/10/22 11:55:00;;;;;;;3.13;1.20;;;;;;;;;;4966180;28;20968;-69
2022/10/22 11:57:36;;;;;;;1.77;1.13;;;;;;;;;;4951209;28;20423;-71
2022/10/22 12:00:05;;;;;;;0.70;0.70;;;;;;;;;;4950741;28;20955;-69
2022/10/22 12:02:39;;;;;;;1.00;0.83;;;;;;;;;;4950456;28;20446;-69
2022/10/22 12:05:23;;;;;;;1.83;1.53;;;;;;;;;;4950584;28;20494;-69
2022/10/22 12:07:53;;;;;;;2.20;2.03;;;;;;;;;;4950907;28;20427;-69
2022/10/22 12:10:20;;;;;;;1.60;1.00;;;;;;;;;;4950518;28;20439;-72
2022/10/22 12:13:04;;;;;;;1.17;0.80;;;;;;;;;;4966101;28;20435;-71
2022/10/22 12:15:30;;;;;;;3.40;1.10;;;;;;;;;;4965087;28;20962;-71
2022/10/22 12:18:00;;;;;;;5.10;1.67;;;;;;;;;;4951558;28;20422;-70
2022/10/22 12:20:27;;;;;;;3.80;1.30;;;;;;;;;;4950527;28;20986;-70
2022/10/22 12:22:54;;;;;;;3.40;0.93;;;;;;;;;;4950828;28;20431;-71
2022/10/22 12:25:24;;;;;;;3.60;1.00;;;;;;;;;;4951063;28;20502;-71
2022/10/22 12:27:56;;;;;;;2.77;1.40;;;;;;;;;;4949337;28;20439;-71
2022/10/22 12:30:23;;;;;;;6.70;1.20;;;;;;;;;;4949662;28;20435;-71
2022/10/22 12:32:55;;;;;;;2.03;1.27;;;;;;;;;;4949672;28;20463;-71
2022/10/22 12:35:24;;;;;;;0.80;0.80;;;;;;;;;;4950898;28;20971;-72
2022/10/22 12:37:51;;;;;;;3.23;1.10;;;;;;;;;;4950640;28;20494;-71
2022/10/22 12:40:21;;;;;;;1.00;0.80;;;;;;;;;;4964993;28;20968;-71
2022/10/22 12:43:08;;;;;;;4.50;1.00;;;;;;;;;;4951226;28;20435;-71
2022/10/22 12:45:34;;;;;;;1.03;1.03;;;;;;;;;;4942733;28;20482;-72
2022/10/22 12:48:08;;;;;;;4.10;1.10;;;;;;;;;;4951156;28;20423;-71
2022/10/22 12:50:37;;;;;;;2.57;1.53;;;;;;;;;;4949417;28;20431;-71
2022/10/22 12:53:04;;;;;;;1.53;0.90;;;;;;;;;;4949753;28;20974;-70
2022/10/22 12:55:31;;;;;;;1.20;0.83;;;;;;;;;;4949856;28;20423;-71
2022/10/22 12:57:57;;;;;;;1.50;0.70;;;;;;;;;;4951148;28;20462;-71
2022/10/22 13:00:24;;;;;;;0.97;0.97;;;;;;;;;;4948618;28;21647;-70
2022/10/22 13:02:51;;;;;;;1.27;0.90;;;;;;;;;;4949914;28;20438;-70
2022/10/22 13:05:21;;;;;;;1.67;1.00;;;;;;;;;;4950387;28;20575;-71
2022/10/22 13:07:51;;;;;;;0.90;0.87;;;;;;;;;;4950835;28;20521;-72
2022/10/22 13:10:23;;;;;;;1.60;1.50;;;;;;;;;;4949875;28;20431;-71
2022/10/22 13:12:50;;;;;;;6.63;1.43;;;;;;;;;;4950985;28;20824;-70
2022/10/22 13:15:21;;;;;;;2.80;1.00;;;;;;;;;;4948533;28;20439;-70
2022/10/22 13:17:50;;;;;;;1.27;1.20;;;;;;;;;;4950419;28;20441;-71
2022/10/22 13:20:21;;;;;;;2.63;1.40;;;;;;;;;;4950417;28;20434;-71
2022/10/22 13:22:54;;;;;;;0.80;0.80;;;;;;;;;;4950762;28;20534;-69
2022/10/22 13:25:22;;;;;;;2.43;1.23;;;;;;;;;;4949693;28;20586;-72
2022/10/22 13:27:49;;;;;;;3.83;1.20;;;;;;;;;;4952649;28;20419;-71
2022/10/22 13:30:26;;;;;;;0.67;0.67;;;;;;;;;;4953028;28;20834;-69
2022/10/22 13:32:54;;;;;;;0.97;0.97;;;;;;;;;;4953841;28;20589;-70
2022/10/22 13:35:22;;;;;;;5.50;0.87;;;;;;;;;;4953858;28;20446;-71
2022/10/22 13:37:48;;;;;;;4.00;1.30;;;;;;;;;;4953245;28;20439;-70
2022/10/22 13:40:14;;;;;;;1.30;0.80;;;;;;;;;;4953684;28;20481;-72
2022/10/22 13:42:40;;;;;;;1.13;1.10;;;;;;;;;;4954188;28;20423;-71
2022/10/22 13:45:06;;;;;;;0.90;0.90;;;;;;;;;;4953402;28;20504;-70
2022/10/22 13:47:32;;;;;;;2.83;0.93;;;;;;;;;;4953468;28;20431;-71
2022/10/22 13:50:01;;;;;;;1.33;0.90;;;;;;;;;;4953695;28;20824;-71
2022/10/22 13:52:31;;;;;;;2.63;1.17;;;;;;;;;;4953936;28;20525;-72
2022/10/22 13:54:57;;;;;;;2.30;1.00;;;;;;;;;;4953761;28;20439;-71
2022/10/22 13:57:22;;;;;;;1.20;1.10;;;;;;;;;;4953287;28;20446;-72
2022/10/22 13:59:48;;;;;;;1.00;0.90;;;;;;;;;;4952435;28;20408;-71
2022/10/22 14:02:15;;;;;;;0.47;0.47;;;;;;;;;;4953398;28;20498;-72
2022/10/22 14:04:41;;;;;;;1.10;0.60;;;;;;;;;;4953005;28;20518;-72
2022/10/22 14:07:17;;;;;;;0.83;0.83;;;;;;;;;;4952493;28;20506;-71
2022/10/22 14:09:43;;;;;;;0.70;0.70;;;;;;;;;;4966185;28;20435;-72
2022/10/22 14:12:13;;;;;;;0.73;0.73;;;;;;;;;;4950707;28;20445;-71
2022/10/22 14:14:39;;;;;;;0.70;0.70;;;;;;;;;;4951834;28;20501;-72
2022/10/22 14:17:08;;;;;;;2.90;1.60;;;;;;;;;;4952714;28;20430;-72
2022/10/22 14:19:34;;;;;;;4.73;0.93;;;;;;;;;;4951035;28;20884;-70
2022/10/22 14:22:00;;;;;;;0.60;0.60;;;;;;;;;;4953121;28;20462;-71
2022/10/22 14:24:26;;;;;;;0.93;0.63;;;;;;;;;;4952077;28;20999;-72
2022/10/22 14:26:52;;;;;;;0.97;0.87;;;;;;;;;;4951948;28;20434;-71
2022/10/22 14:29:18;;;;;;;6.43;1.10;;;;;;;;;;4966921;28;21002;-71
2022/10/22 14:31:44;;;;;;;0.70;0.70;;;;;;;;;;4952380;28;20442;-72
2022/10/22 14:34:10;;;;;;;2.73;1.00;;;;;;;;;;4949910;28;20565;-72
2022/10/22 14:36:36;;;;;;;3.53;1.00;;;;;;;;;;4947460;28;20453;-72
2022/10/22 14:39:03;;;;;;;3.03;0.70;;;;;;;;;;4949735;28;20598;-69
2022/10/22 14:41:29;;;;;;;1.70;0.70;;;;;;;;;;4948972;28;20435;-71
2022/10/22 14:43:55;;;;;;;0.83;0.83;;;;;;;;;;4951656;28;20524;-71
2022/10/22 14:46:22;;;;;;;1.43;1.23;;;;;;;;;;4950623;28;20450;-70
2022/10/22 14:48:47;;;;;;;0.83;0.83;;;;;;;;;;4952042;28;20446;-69
2022/10/22 14:51:15;;;;;;;0.70;0.70;;;;;;;;;;4951782;28;20422;-71
2022/10/22 14:53:41;;;;;;;1.77;0.77;;;;;;;;;;4952810;28;20450;-69